Anadyr', Russia

6:47 PM +11 on December 03, 2016 (GMT +1100)
Ugolny | | Change Station

Elev 203 ft 64.78 °N, 177.57 °E | Updated 47 minutes ago

Clear
Clear
-17 °F
Feels Like -35 °F
N
9
Wind Variable Wind from North

Today
High -- | Low -- °F
--% Chance of Precip.
Yesterday
High -- | Low -- °F
Precip. -- in
Pressure 30.33 in
Visibility -9999.0 miles
Clouds
Windchill -35 °F
Dew Point -22 °F
Humidity 76%
Rainfall 0.00 in
Snow Depth Not available.
8:41 AM 1:17 PM
Waxing Crescent, 13% visible
METAR UHMA 030700Z 01004MPS CAVOK M27/M30 Q1027 NOSIG RMK QFE766/1022
Pressure 30.33 in
Visibility -9999.0 miles
Clouds
Windchill -35 °F
Dew Point -22 °F
Humidity 76%
Rainfall 0.00 in
Snow Depth Not available.
8:41 AM 1:17 PM
Waxing Crescent, 13% visible
METAR UHMA 030700Z 01004MPS CAVOK M27/M30 Q1027 NOSIG RMK QFE766/1022

10-Day Weather Forecast

×

Almanac

Astronomy

Dec. 03, 2016 Rise Set
Actual Time
Civil Twilight
Nautical Twilight
Astronomical Twilight
Moon
Length of Visible Light
Length of Day
Tomorrow will be .
, % of the Moon is Illuminated

Today's Extremes

Country Highs Country Lows

Community

WunderPhotos

Upload Photos

1,955,432 photos uploaded!

WunderBlog® & News

Nearby

Air Quality

  Air Quality AQ Index Pollutant
Not available.

Snow Depth

Station Depth Elevation

Earthquake Activity

City Distance Mag. Time & Date
Minimum magnitude displayed is 2.5.

Coastal Water Temperatures

Place Temperature

Stations

Nearby Weather Stations

Station Location Temp. Windchill Dew Point Humidity Wind Precip. Elev Updated Type